createdAt,value
2017-08-01T00:00:43.389Z,0
2017-08-01T00:01:43.671Z,0
2017-08-01T00:02:43.663Z,0
2017-08-01T00:03:43.634Z,0
2017-08-01T00:04:43.622Z,0
2017-08-01T00:05:43.290Z,0
2017-08-01T00:06:43.795Z,0
2017-08-01T00:07:42.959Z,0
2017-08-01T00:08:43.546Z,0
2017-08-01T00:09:43.536Z,0
2017-08-01T00:10:43.232Z,0
2017-08-01T00:11:43.486Z,0
2017-08-01T00:12:43.163Z,0
2017-08-01T00:13:43.448Z,0
2017-08-01T00:14:43.432Z,0
2017-08-01T00:15:43.103Z,0
2017-08-01T00:16:43.383Z,0
2017-08-01T00:17:42.776Z,0
2017-08-01T00:18:43.342Z,0
2017-08-01T00:19:43.335Z,0
2017-08-01T00:20:43.364Z,0
2017-08-01T00:21:43.005Z,0
2017-08-01T00:22:43.259Z,0
2017-08-01T00:23:42.649Z,0
2017-08-01T00:24:42.926Z,0
2017-08-01T00:25:43.209Z,0
2017-08-01T00:26:43.188Z,0
2017-08-01T00:27:43.161Z,0
2017-08-01T00:28:42.900Z,0
2017-08-01T00:29:43.483Z,0
2017-08-01T00:30:43.110Z,0
2017-08-01T00:31:43.094Z,0
2017-08-01T00:32:42.771Z,0
2017-08-01T00:33:43.064Z,0
2017-08-01T00:34:42.725Z,0
2017-08-01T00:35:43.023Z,0
2017-08-01T00:36:42.684Z,0
2017-08-01T00:37:42.983Z,0
2017-08-01T00:38:42.353Z,0
2017-08-01T00:39:43.013Z,0
2017-08-01T00:40:42.913Z,0
2017-08-01T00:41:42.898Z,0
2017-08-01T00:42:42.875Z,0
2017-08-01T00:43:42.850Z,0
2017-08-01T00:44:42.566Z,0
2017-08-01T00:45:42.813Z,0
2017-08-01T00:46:42.790Z,0
2017-08-01T00:47:42.793Z,0
2017-08-01T00:48:42.759Z,0
2017-08-01T00:49:42.440Z,0
2017-08-01T00:50:42.731Z,0
2017-08-01T00:51:42.744Z,0
2017-08-01T00:52:42.673Z,0
2017-08-01T00:53:42.663Z,0
2017-08-01T00:54:42.449Z,0
2017-08-01T00:55:42.626Z,0
2017-08-01T00:56:42.302Z,0
2017-08-01T00:57:42.282Z,0
2017-08-01T00:58:42.556Z,0
2017-08-01T00:59:42.251Z,0
2017-08-01T01:00:42.573Z,0
2017-08-01T01:01:42.520Z,0
2017-08-01T01:02:42.179Z,0
2017-08-01T01:03:42.172Z,0
2017-08-01T01:04:42.444Z,0
2017-08-01T01:05:42.426Z,0
2017-08-01T01:06:42.414Z,0
2017-08-01T01:07:42.096Z,0
2017-08-01T01:08:42.367Z,0
2017-08-01T01:09:42.396Z,0
2017-08-01T01:10:42.349Z,0
2017-08-01T01:11:42.312Z,0
2017-08-01T01:12:42.552Z,0
2017-08-01T01:13:42.273Z,0
2017-08-01T01:14:41.992Z,0
2017-08-01T01:15:42.226Z,0
2017-08-01T01:16:42.205Z,0
2017-08-01T01:17:41.898Z,0
2017-08-01T01:18:42.181Z,0
2017-08-01T01:19:42.150Z,0
2017-08-01T01:20:42.190Z,0
2017-08-01T01:21:42.120Z,0
2017-08-01T01:22:42.104Z,0
2017-08-01T01:23:41.849Z,0
2017-08-01T01:24:42.063Z,0
2017-08-01T01:25:41.749Z,0
2017-08-01T01:26:42.030Z,0
2017-08-01T01:27:42.004Z,0
2017-08-01T01:28:41.989Z,0
2017-08-01T01:29:41.348Z,0
2017-08-01T01:30:41.648Z,0
2017-08-01T01:31:41.973Z,0
2017-08-01T01:32:41.914Z,0
2017-08-01T01:33:41.629Z,0
2017-08-01T01:34:41.868Z,0
2017-08-01T01:35:41.853Z,0
2017-08-01T01:36:41.837Z,0
2017-08-01T01:37:41.808Z,0
2017-08-01T01:38:41.787Z,0
2017-08-01T01:39:41.765Z,0
2017-08-01T01:40:41.748Z,0
2017-08-01T01:41:41.135Z,0
2017-08-01T01:42:41.773Z,0
2017-08-01T01:43:41.991Z,0
2017-08-01T01:44:41.681Z,0
2017-08-01T01:45:41.047Z,0
2017-08-01T01:46:41.388Z,0
2017-08-01T01:47:41.612Z,0
2017-08-01T01:48:41.645Z,0
2017-08-01T01:49:41.590Z,0
2017-08-01T01:50:41.570Z,0
2017-08-01T01:51:41.535Z,0
2017-08-01T01:52:41.564Z,0
2017-08-01T01:53:40.890Z,0
2017-08-01T01:54:41.476Z,0
2017-08-01T01:55:41.162Z,0
2017-08-01T01:56:41.441Z,0
2017-08-01T01:57:41.428Z,0
2017-08-01T01:58:41.400Z,0
2017-08-01T01:59:41.132Z,0
2017-08-01T02:00:41.367Z,0
2017-08-01T02:01:41.337Z,0
2017-08-01T02:02:40.778Z,0
2017-08-01T02:03:41.308Z,0
2017-08-01T02:04:41.289Z,0
2017-08-01T02:05:40.972Z,0
2017-08-01T02:06:40.957Z,0
2017-08-01T02:07:41.240Z,0
2017-08-01T02:08:41.212Z,0
2017-08-01T02:09:41.189Z,0
2017-08-01T02:10:41.174Z,0
2017-08-01T02:11:40.872Z,0
2017-08-01T02:12:41.129Z,0
2017-08-01T02:13:41.110Z,0
2017-08-01T02:14:41.089Z,0
2017-08-01T02:15:41.074Z,0
2017-08-01T02:16:41.049Z,0
2017-08-01T02:17:41.037Z,0
2017-08-01T02:18:41.007Z,0
2017-08-01T02:19:40.996Z,0
2017-08-01T02:20:40.974Z,0
2017-08-01T02:21:40.960Z,0
2017-08-01T02:22:40.935Z,0
2017-08-01T02:23:40.970Z,0
2017-08-01T02:24:40.623Z,0
2017-08-01T02:25:40.888Z,0
2017-08-01T02:26:40.864Z,0
2017-08-01T02:27:40.839Z,0
2017-08-01T02:28:40.815Z,0
2017-08-01T02:29:40.811Z,0
2017-08-01T02:30:40.806Z,0
2017-08-01T02:31:40.764Z,0
2017-08-01T02:32:40.756Z,0
2017-08-01T02:33:40.724Z,0
2017-08-01T02:34:40.712Z,0
2017-08-01T02:35:40.396Z,0
2017-08-01T02:36:40.370Z,0
2017-08-01T02:37:40.633Z,0
2017-08-01T02:38:40.622Z,0
2017-08-01T02:39:40.613Z,0
2017-08-01T02:40:40.643Z,0
2017-08-01T02:41:40.570Z,0
2017-08-01T02:42:40.553Z,0
2017-08-01T02:43:40.530Z,0
2017-08-01T02:44:40.514Z,0
2017-08-01T02:45:40.535Z,0
2017-08-01T02:46:40.166Z,0
2017-08-01T02:47:40.458Z,0
2017-08-01T02:48:40.437Z,0
2017-08-01T02:49:40.116Z,0
2017-08-01T02:50:40.091Z,0
2017-08-01T02:51:40.388Z,0
2017-08-01T02:52:40.356Z,0
2017-08-01T02:53:40.332Z,0
2017-08-01T02:54:40.322Z,0
2017-08-01T02:55:40.299Z,0
2017-08-01T02:56:40.278Z,0
2017-08-01T02:57:39.972Z,0
2017-08-01T02:58:40.238Z,0
2017-08-01T02:59:40.220Z,0
2017-08-01T03:00:40.206Z,0
2017-08-01T03:01:40.188Z,0
2017-08-01T03:02:40.157Z,0
2017-08-01T03:03:40.144Z,0
2017-08-01T03:04:40.128Z,0
2017-08-01T03:05:40.110Z,0
2017-08-01T03:06:40.082Z,0
2017-08-01T03:07:40.069Z,0
2017-08-01T03:08:39.440Z,0
2017-08-01T03:09:39.725Z,0
2017-08-01T03:10:39.747Z,0
2017-08-01T03:11:39.386Z,0
2017-08-01T03:12:39.651Z,0
2017-08-01T03:13:39.937Z,0
2017-08-01T03:14:39.616Z,0
2017-08-01T03:15:39.905Z,0
2017-08-01T03:16:39.914Z,0
2017-08-01T03:17:39.861Z,0
2017-08-01T03:18:39.551Z,0
2017-08-01T03:19:39.867Z,0
2017-08-01T03:20:39.799Z,0
2017-08-01T03:21:39.478Z,0
2017-08-01T03:22:39.460Z,0
2017-08-01T03:23:39.745Z,0
2017-08-01T03:24:39.414Z,0
2017-08-01T03:25:39.704Z,0
2017-08-01T03:26:39.387Z,0
2017-08-01T03:27:39.667Z,0
2017-08-01T03:28:39.341Z,0
2017-08-01T03:29:39.022Z,0
2017-08-01T03:30:39.648Z,0
2017-08-01T03:31:39.828Z,0
2017-08-01T03:32:39.578Z,0
2017-08-01T03:33:39.257Z,0
2017-08-01T03:34:39.531Z,0
2017-08-01T03:35:39.513Z,0
2017-08-01T03:36:39.489Z,0
2017-08-01T03:37:39.162Z,0
2017-08-01T03:38:39.150Z,0
2017-08-01T03:39:39.420Z,0
2017-08-01T03:40:39.106Z,0
2017-08-01T03:41:39.389Z,0
2017-08-01T03:42:39.068Z,0
2017-08-01T03:43:39.337Z,0
2017-08-01T03:44:39.332Z,0
2017-08-01T03:45:39.299Z,0
2017-08-01T03:46:38.981Z,0
2017-08-01T03:47:38.956Z,0
2017-08-01T03:48:39.237Z,0
2017-08-01T03:49:39.223Z,0
2017-08-01T03:50:39.209Z,0
2017-08-01T03:51:38.985Z,0
2017-08-01T03:52:38.866Z,0
2017-08-01T03:53:38.839Z,0
2017-08-01T03:54:39.127Z,5
2017-08-01T03:55:39.097Z,5
2017-08-01T03:56:39.093Z,5
2017-08-01T03:57:39.102Z,5
2017-08-01T03:58:38.749Z,5
2017-08-01T03:59:38.725Z,5
2017-08-01T04:00:39.000Z,5
2017-08-01T04:01:38.691Z,5
2017-08-01T04:02:38.964Z,5
2017-08-01T04:03:38.661Z,5
2017-08-01T04:04:38.373Z,10
2017-08-01T04:05:38.896Z,10
2017-08-01T04:06:38.877Z,10
2017-08-01T04:07:38.862Z,10
2017-08-01T04:08:38.846Z,15
2017-08-01T04:09:38.826Z,15
2017-08-01T04:10:38.851Z,20
2017-08-01T04:11:38.782Z,20
2017-08-01T04:12:38.466Z,25
2017-08-01T04:13:38.787Z,25
2017-08-01T04:14:38.727Z,30
2017-08-01T04:15:38.758Z,30
2017-08-01T04:16:38.384Z,35
2017-08-01T04:17:38.674Z,35
2017-08-01T04:18:38.696Z,35
2017-08-01T04:19:38.620Z,30
2017-08-01T04:20:38.632Z,30
2017-08-01T04:21:38.579Z,30
2017-08-01T04:22:38.565Z,35
2017-08-01T04:23:38.540Z,35
2017-08-01T04:24:38.526Z,40
2017-08-01T04:25:38.510Z,40
2017-08-01T04:26:38.492Z,45
2017-08-01T04:27:38.211Z,50
2017-08-01T04:28:38.446Z,55
2017-08-01T04:29:38.427Z,60
2017-08-01T04:30:38.407Z,70
2017-08-01T04:31:38.390Z,80
2017-08-01T04:32:38.363Z,90
2017-08-01T04:33:38.350Z,95
2017-08-01T04:34:38.322Z,100
2017-08-01T04:35:38.308Z,105
2017-08-01T04:36:38.643Z,105
2017-08-01T04:37:37.975Z,100
2017-08-01T04:38:38.244Z,100
2017-08-01T04:39:37.931Z,95
2017-08-01T04:40:37.901Z,100
2017-08-01T04:41:38.182Z,110
2017-08-01T04:42:38.171Z,125
2017-08-01T04:43:38.163Z,145
2017-08-01T04:44:37.877Z,155
2017-08-01T04:45:37.809Z,160
2017-08-01T04:46:37.837Z,165
2017-08-01T04:47:37.828Z,170
2017-08-01T04:48:38.114Z,170
2017-08-01T04:49:37.424Z,185
2017-08-01T04:50:38.010Z,155
2017-08-01T04:51:37.995Z,125
2017-08-01T04:52:37.972Z,120
2017-08-01T04:53:37.952Z,110
2017-08-01T04:54:37.635Z,115
2017-08-01T04:55:37.621Z,105
2017-08-01T04:56:37.592Z,105
2017-08-01T04:57:37.620Z,105
2017-08-01T04:58:37.850Z,110
2017-08-01T04:59:37.842Z,110
2017-08-01T05:00:37.817Z,115
2017-08-01T05:01:37.798Z,125
2017-08-01T05:02:37.175Z,130
2017-08-01T05:03:37.769Z,140
2017-08-01T05:04:37.783Z,145
2017-08-01T05:05:37.728Z,155
2017-08-01T05:06:37.430Z,170
2017-08-01T05:07:37.682Z,185
2017-08-01T05:08:37.668Z,180
2017-08-01T05:09:37.642Z,180
2017-08-01T05:10:37.627Z,190
2017-08-01T05:11:37.616Z,180
2017-08-01T05:12:37.337Z,195
2017-08-01T05:13:37.561Z,210
2017-08-01T05:14:37.814Z,285
2017-08-01T05:15:37.288Z,355
2017-08-01T05:16:37.218Z,350
2017-08-01T05:17:37.481Z,320
2017-08-01T05:18:37.471Z,260
2017-08-01T05:19:37.457Z,330
2017-08-01T05:20:37.128Z,380
2017-08-01T05:21:37.421Z,395
2017-08-01T05:22:37.399Z,390
2017-08-01T05:23:37.390Z,395
2017-08-01T05:24:37.049Z,400
2017-08-01T05:25:37.038Z,430
2017-08-01T05:26:37.030Z,440
2017-08-01T05:27:37.313Z,415
2017-08-01T05:28:37.302Z,375
2017-08-01T05:29:37.015Z,250
2017-08-01T05:30:37.255Z,225
2017-08-01T05:31:37.236Z,240
2017-08-01T05:32:36.912Z,250
2017-08-01T05:33:37.211Z,250
2017-08-01T05:34:37.174Z,355
2017-08-01T05:35:36.866Z,380
2017-08-01T05:36:36.866Z,355
2017-08-01T05:37:36.901Z,360
2017-08-01T05:38:36.505Z,345
2017-08-01T05:39:37.098Z,270
2017-08-01T05:40:37.062Z,315
2017-08-01T05:41:37.066Z,325
2017-08-01T05:42:37.061Z,245
2017-08-01T05:43:37.052Z,220
2017-08-01T05:44:37.014Z,235
2017-08-01T05:45:36.738Z,250
2017-08-01T05:46:37.018Z,240
2017-08-01T05:47:36.952Z,340
2017-08-01T05:48:36.905Z,330
2017-08-01T05:49:36.616Z,365
2017-08-01T05:50:36.603Z,380
2017-08-01T05:51:36.911Z,340
2017-08-01T05:52:37.123Z,325
2017-08-01T05:53:36.557Z,360
2017-08-01T05:54:36.879Z,405
2017-08-01T05:55:36.817Z,370
2017-08-01T05:56:36.195Z,405
2017-08-01T05:57:36.786Z,395
2017-08-01T05:58:36.467Z,390
2017-08-01T05:59:36.746Z,385
2017-08-01T06:00:36.739Z,425
2017-08-01T06:01:36.426Z,405
2017-08-01T06:02:36.706Z,340
2017-08-01T06:03:36.739Z,330
2017-08-01T06:04:36.670Z,310
2017-08-01T06:05:36.661Z,355
2017-08-01T06:06:36.630Z,390
2017-08-01T06:07:36.630Z,375
2017-08-01T06:08:36.304Z,405
2017-08-01T06:09:36.595Z,385
2017-08-01T06:10:36.274Z,440
2017-08-01T06:11:36.249Z,430
2017-08-01T06:12:36.588Z,335
2017-08-01T06:13:36.519Z,620
2017-08-01T06:14:36.522Z,600
2017-08-01T06:15:36.502Z,610
2017-08-01T06:16:36.483Z,615
2017-08-01T06:17:35.931Z,610
2017-08-01T06:18:36.140Z,600
2017-08-01T06:19:36.127Z,640
2017-08-01T06:20:36.414Z,665
2017-08-01T06:21:36.401Z,705
2017-08-01T06:22:36.076Z,570
2017-08-01T06:23:36.380Z,345
2017-08-01T06:24:36.359Z,690
2017-08-01T06:25:36.037Z,450
2017-08-01T06:26:36.027Z,250
2017-08-01T06:27:36.336Z,395
2017-08-01T06:28:36.315Z,610
2017-08-01T06:29:35.989Z,755
2017-08-01T06:30:35.967Z,680
2017-08-01T06:31:36.015Z,775
2017-08-01T06:32:36.252Z,820
2017-08-01T06:33:35.986Z,850
2017-08-01T06:34:36.210Z,900
2017-08-01T06:35:36.209Z,905
2017-08-01T06:36:36.191Z,505
2017-08-01T06:37:36.176Z,660
2017-08-01T06:38:36.166Z,730
2017-08-01T06:39:36.149Z,525
2017-08-01T06:40:36.134Z,1035
2017-08-01T06:41:36.132Z,1060
2017-08-01T06:42:36.115Z,1075
2017-08-01T06:43:36.104Z,640
2017-08-01T06:44:35.787Z,440
2017-08-01T06:45:35.786Z,435
2017-08-01T06:46:35.789Z,520
2017-08-01T06:47:36.058Z,420
2017-08-01T06:48:36.044Z,440
2017-08-01T06:49:36.118Z,480
2017-08-01T06:50:36.027Z,435
2017-08-01T06:51:36.063Z,390
2017-08-01T06:52:35.998Z,390
2017-08-01T06:53:36.236Z,390
2017-08-01T06:54:35.971Z,395
2017-08-01T06:55:35.662Z,425
2017-08-01T06:56:35.955Z,415
2017-08-01T06:57:35.943Z,430
2017-08-01T06:58:36.214Z,440
2017-08-01T06:59:35.707Z,455
2017-08-01T07:00:35.592Z,520
2017-08-01T07:01:35.872Z,570
2017-08-01T07:02:35.556Z,610
2017-08-01T07:03:35.594Z,650
2017-08-01T07:04:35.826Z,730
2017-08-01T07:05:35.828Z,680
2017-08-01T07:06:35.807Z,765
2017-08-01T07:07:35.781Z,900
2017-08-01T07:08:35.481Z,875
2017-08-01T07:09:35.469Z,885
2017-08-01T07:10:35.744Z,860
2017-08-01T07:11:35.736Z,880
2017-08-01T07:12:36.022Z,895
2017-08-01T07:13:35.779Z,720
2017-08-01T07:14:35.720Z,740
2017-08-01T07:15:35.450Z,745
2017-08-01T07:16:35.373Z,765
2017-08-01T07:17:35.675Z,710
2017-08-01T07:18:35.654Z,705
2017-08-01T07:19:35.643Z,720
2017-08-01T07:20:35.743Z,770
2017-08-01T07:21:35.664Z,855
2017-08-01T07:22:35.659Z,890
2017-08-01T07:23:35.634Z,920
2017-08-01T07:24:35.578Z,910
2017-08-01T07:25:35.568Z,895
2017-08-01T07:26:35.573Z,900
2017-08-01T07:27:35.546Z,1035
2017-08-01T07:28:35.538Z,1120
2017-08-01T07:29:35.277Z,1145
2017-08-01T07:30:35.514Z,935
2017-08-01T07:31:35.483Z,1250
2017-08-01T07:32:35.475Z,1195
2017-08-01T07:33:35.476Z,1085
2017-08-01T07:34:35.159Z,865
2017-08-01T07:35:35.449Z,765
2017-08-01T07:36:35.450Z,800
2017-08-01T07:37:35.435Z,805
2017-08-01T07:38:35.125Z,800
2017-08-01T07:39:35.412Z,945
2017-08-01T07:40:35.451Z,1080
2017-08-01T07:41:35.378Z,670
2017-08-01T07:42:35.376Z,1025
2017-08-01T07:43:35.380Z,955
2017-08-01T07:44:34.770Z,895
2017-08-01T07:45:35.097Z,620
2017-08-01T07:46:35.349Z,710
2017-08-01T07:47:35.348Z,535
2017-08-01T07:48:35.331Z,530
2017-08-01T07:49:35.356Z,705
2017-08-01T07:50:35.285Z,620
2017-08-01T07:51:35.285Z,495
2017-08-01T07:52:35.323Z,655
2017-08-01T07:53:34.954Z,1490
2017-08-01T07:54:35.264Z,1295
2017-08-01T07:55:35.235Z,1445
2017-08-01T07:56:35.300Z,1350
2017-08-01T07:57:35.218Z,1120
2017-08-01T07:58:35.205Z,1105
2017-08-01T07:59:34.897Z,960
2017-08-01T08:00:35.186Z,820
2017-08-01T08:01:35.171Z,750
2017-08-01T08:02:35.165Z,755
2017-08-01T08:03:35.167Z,705
2017-08-01T08:04:34.838Z,710
2017-08-01T08:05:34.829Z,660
2017-08-01T08:06:35.315Z,585
2017-08-01T08:07:35.107Z,620
2017-08-01T08:08:35.206Z,595
2017-08-01T08:09:34.496Z,665
2017-08-01T08:10:35.106Z,625
2017-08-01T08:11:35.081Z,620
2017-08-01T08:12:35.065Z,580
2017-08-01T08:13:34.757Z,595
2017-08-01T08:14:35.040Z,585
2017-08-01T08:15:34.772Z,540
2017-08-01T08:16:35.057Z,475
2017-08-01T08:17:35.012Z,450
2017-08-01T08:18:34.987Z,420
2017-08-01T08:19:34.984Z,410
2017-08-01T08:20:34.970Z,405
2017-08-01T08:21:34.977Z,415
2017-08-01T08:22:34.979Z,435
2017-08-01T08:23:35.194Z,455
2017-08-01T08:24:34.687Z,470
2017-08-01T08:25:34.898Z,480
2017-08-01T08:26:34.877Z,475
2017-08-01T08:27:34.872Z,465
2017-08-01T08:28:34.873Z,460
2017-08-01T08:29:34.850Z,455
2017-08-01T08:30:34.838Z,455
2017-08-01T08:31:34.837Z,460
2017-08-01T08:32:34.800Z,460
2017-08-01T08:33:34.790Z,475
2017-08-01T08:34:34.779Z,480
2017-08-01T08:35:34.754Z,495
2017-08-01T08:36:34.762Z,505
2017-08-01T08:37:34.729Z,530
2017-08-01T08:38:34.721Z,585
2017-08-01T08:39:34.700Z,635
2017-08-01T08:40:34.690Z,660
2017-08-01T08:41:34.391Z,705
2017-08-01T08:42:34.713Z,730
2017-08-01T08:43:34.653Z,720
2017-08-01T08:44:34.341Z,655
2017-08-01T08:45:34.619Z,620
2017-08-01T08:46:34.615Z,620
2017-08-01T08:47:34.290Z,620
2017-08-01T08:48:34.582Z,600
2017-08-01T08:49:34.560Z,595
2017-08-01T08:50:34.553Z,590
2017-08-01T08:51:34.505Z,590
2017-08-01T08:52:34.522Z,595
2017-08-01T08:53:34.501Z,615
2017-08-01T08:54:34.502Z,580
2017-08-01T08:55:34.535Z,535
2017-08-01T08:56:34.492Z,525
2017-08-01T08:57:34.161Z,525
2017-08-01T08:58:34.437Z,560
2017-08-01T08:59:34.483Z,620
2017-08-01T09:00:34.412Z,650
2017-08-01T09:01:34.405Z,680
2017-08-01T09:02:34.385Z,715
2017-08-01T09:03:34.373Z,685
2017-08-01T09:04:34.363Z,675
2017-08-01T09:05:34.037Z,705
2017-08-01T09:06:34.327Z,720
2017-08-01T09:07:34.011Z,715
2017-08-01T09:08:34.316Z,685
2017-08-01T09:09:34.289Z,665
2017-08-01T09:10:34.289Z,665
2017-08-01T09:11:33.970Z,675
2017-08-01T09:12:34.295Z,645
2017-08-01T09:13:34.241Z,610
2017-08-01T09:14:34.272Z,575
2017-08-01T09:15:33.909Z,535
2017-08-01T09:16:34.195Z,505
2017-08-01T09:17:33.942Z,530
2017-08-01T09:18:34.162Z,490
2017-08-01T09:19:34.157Z,400
2017-08-01T09:20:34.187Z,400
2017-08-01T09:21:33.878Z,440
2017-08-01T09:22:33.755Z,455
2017-08-01T09:23:34.097Z,445
2017-08-01T09:24:34.079Z,410
2017-08-01T09:25:34.073Z,415
2017-08-01T09:26:34.070Z,425
2017-08-01T09:27:33.747Z,425
2017-08-01T09:28:33.422Z,420
2017-08-01T09:29:33.726Z,425
2017-08-01T09:30:33.992Z,440
2017-08-01T09:31:33.978Z,455
2017-08-01T09:32:33.721Z,465
2017-08-01T09:33:33.649Z,475
2017-08-01T09:34:33.952Z,490
2017-08-01T09:35:33.622Z,490
2017-08-01T09:36:33.713Z,480
2017-08-01T09:37:33.946Z,465
2017-08-01T09:38:33.881Z,445
2017-08-01T09:39:33.878Z,425
2017-08-01T09:40:33.855Z,410
2017-08-01T09:41:33.840Z,380
2017-08-01T09:42:33.817Z,355
2017-08-01T09:43:33.209Z,340
2017-08-01T09:44:33.794Z,320
2017-08-01T09:45:33.777Z,310
2017-08-01T09:46:33.763Z,300
2017-08-01T09:47:33.817Z,290
2017-08-01T09:48:33.731Z,285
2017-08-01T09:49:33.725Z,290
2017-08-01T09:50:33.406Z,290
2017-08-01T09:51:33.697Z,290
2017-08-01T09:52:33.690Z,295
2017-08-01T09:53:33.345Z,300
2017-08-01T09:54:33.644Z,300
2017-08-01T09:55:33.619Z,300
2017-08-01T09:56:33.606Z,300
2017-08-01T09:57:33.623Z,305
2017-08-01T09:58:33.583Z,300
2017-08-01T09:59:33.561Z,315
2017-08-01T10:00:33.552Z,340
2017-08-01T10:01:33.276Z,375
2017-08-01T10:02:33.507Z,430
2017-08-01T10:03:33.606Z,500
2017-08-01T10:04:33.222Z,570
2017-08-01T10:05:33.460Z,545
2017-08-01T10:06:33.459Z,535
2017-08-01T10:07:33.440Z,535
2017-08-01T10:08:33.121Z,540
2017-08-01T10:09:33.398Z,525
2017-08-01T10:10:33.382Z,500
2017-08-01T10:11:33.082Z,460
2017-08-01T10:12:33.359Z,390
2017-08-01T10:13:33.361Z,315
2017-08-01T10:14:33.025Z,265
2017-08-01T10:15:33.023Z,235
2017-08-01T10:16:32.693Z,220
2017-08-01T10:17:33.335Z,215
2017-08-01T10:18:33.261Z,225
2017-08-01T10:19:33.472Z,260
2017-08-01T10:20:33.284Z,290
2017-08-01T10:21:33.217Z,305
2017-08-01T10:22:33.201Z,320
2017-08-01T10:23:33.211Z,310
2017-08-01T10:24:33.175Z,300
2017-08-01T10:25:33.165Z,320
2017-08-01T10:26:33.131Z,385
2017-08-01T10:27:33.169Z,420
2017-08-01T10:28:32.808Z,425
2017-08-01T10:29:33.082Z,435
2017-08-01T10:30:32.781Z,440
2017-08-01T10:31:33.065Z,430
2017-08-01T10:32:33.044Z,400
2017-08-01T10:33:32.425Z,465
2017-08-01T10:34:33.026Z,630
2017-08-01T10:35:32.990Z,690
2017-08-01T10:36:32.975Z,675
2017-08-01T10:37:33.020Z,745
2017-08-01T10:38:32.645Z,970
2017-08-01T10:39:32.933Z,1485
2017-08-01T10:40:32.732Z,1755
2017-08-01T10:41:32.607Z,2025
2017-08-01T10:42:32.936Z,1500
2017-08-01T10:43:32.902Z,1640
2017-08-01T10:44:32.819Z,1380
2017-08-01T10:45:32.848Z,1550
2017-08-01T10:46:32.854Z,1410
2017-08-01T10:47:32.839Z,1350
2017-08-01T10:48:32.814Z,1430
2017-08-01T10:49:32.801Z,1105
2017-08-01T10:50:32.850Z,1230
2017-08-01T10:51:32.761Z,1635
2017-08-01T10:52:32.765Z,2110
2017-08-01T10:53:32.762Z,1350
2017-08-01T10:54:32.751Z,990
2017-08-01T10:55:32.446Z,825
2017-08-01T10:56:32.479Z,790
2017-08-01T10:57:32.411Z,725
2017-08-01T10:58:32.396Z,670
2017-08-01T10:59:32.693Z,650
2017-08-01T11:00:32.681Z,585
2017-08-01T11:01:32.368Z,595
2017-08-01T11:02:32.673Z,635
2017-08-01T11:03:32.350Z,655
2017-08-01T11:04:32.639Z,630
2017-08-01T11:05:32.625Z,560
2017-08-01T11:06:32.616Z,540
2017-08-01T11:07:32.309Z,625
2017-08-01T11:08:32.592Z,680
2017-08-01T11:09:32.828Z,795
2017-08-01T11:10:32.578Z,1460
2017-08-01T11:11:32.606Z,750
2017-08-01T11:12:32.315Z,1560
2017-08-01T11:13:32.529Z,840
2017-08-01T11:14:32.569Z,770
2017-08-01T11:15:32.219Z,800
2017-08-01T11:16:32.488Z,710
2017-08-01T11:17:32.497Z,685
2017-08-01T11:18:32.178Z,660
2017-08-01T11:19:32.162Z,675
2017-08-01T11:20:32.449Z,680
2017-08-01T11:21:32.464Z,675
2017-08-01T11:22:32.421Z,665
2017-08-01T11:23:32.416Z,640
2017-08-01T11:24:32.404Z,610
2017-08-01T11:25:32.107Z,610
2017-08-01T11:26:32.131Z,605
2017-08-01T11:27:32.370Z,630
2017-08-01T11:28:32.050Z,640
2017-08-01T11:29:32.351Z,630
2017-08-01T11:30:32.386Z,615
2017-08-01T11:31:32.321Z,560
2017-08-01T11:32:32.298Z,560
2017-08-01T11:33:32.293Z,585
2017-08-01T11:34:32.324Z,540
2017-08-01T11:35:32.272Z,520
2017-08-01T11:36:32.252Z,535
2017-08-01T11:37:32.250Z,600
2017-08-01T11:38:32.227Z,680
2017-08-01T11:39:32.212Z,650
2017-08-01T11:40:32.201Z,620
2017-08-01T11:41:32.183Z,565
2017-08-01T11:42:32.190Z,475
2017-08-01T11:43:32.154Z,415
2017-08-01T11:44:31.851Z,360
2017-08-01T11:45:32.137Z,325
2017-08-01T11:46:32.126Z,315
2017-08-01T11:47:32.189Z,315
2017-08-01T11:48:32.100Z,310
2017-08-01T11:49:32.144Z,280
2017-08-01T11:50:32.063Z,250
2017-08-01T11:51:32.063Z,230
2017-08-01T11:52:32.134Z,225
2017-08-01T11:53:32.081Z,240
2017-08-01T11:54:32.016Z,270
2017-08-01T11:55:32.058Z,280
2017-08-01T11:56:31.989Z,280
2017-08-01T11:57:31.447Z,260
2017-08-01T11:58:31.964Z,245
2017-08-01T11:59:31.944Z,230
2017-08-01T12:00:31.931Z,235
2017-08-01T12:01:31.922Z,245
2017-08-01T12:02:31.902Z,250
2017-08-01T12:03:31.957Z,250
2017-08-01T12:04:31.868Z,255
2017-08-01T12:05:31.859Z,250
2017-08-01T12:06:31.864Z,250
2017-08-01T12:07:31.828Z,255
2017-08-01T12:08:31.822Z,265
2017-08-01T12:09:31.800Z,290
2017-08-01T12:10:31.794Z,330
2017-08-01T12:11:31.769Z,370
2017-08-01T12:12:31.765Z,360
2017-08-01T12:13:31.745Z,350
2017-08-01T12:14:31.723Z,350
2017-08-01T12:15:31.718Z,340
2017-08-01T12:16:31.105Z,340
2017-08-01T12:17:31.374Z,350
2017-08-01T12:18:31.667Z,340
2017-08-01T12:19:31.644Z,355
2017-08-01T12:20:31.682Z,380
2017-08-01T12:21:31.603Z,380
2017-08-01T12:22:31.606Z,395
2017-08-01T12:23:31.583Z,415
2017-08-01T12:24:31.667Z,415
2017-08-01T12:25:31.612Z,435
2017-08-01T12:26:31.277Z,460
2017-08-01T12:27:31.216Z,485
2017-08-01T12:28:31.503Z,520
2017-08-01T12:29:31.486Z,560
2017-08-01T12:30:31.558Z,595
2017-08-01T12:31:31.451Z,590
2017-08-01T12:32:31.439Z,575
2017-08-01T12:33:31.419Z,585
2017-08-01T12:34:31.109Z,610
2017-08-01T12:35:31.166Z,645
2017-08-01T12:36:31.448Z,605
2017-08-01T12:37:31.463Z,550
2017-08-01T12:38:31.403Z,520
2017-08-01T12:39:31.024Z,495
2017-08-01T12:40:31.320Z,485
2017-08-01T12:41:31.319Z,500
2017-08-01T12:42:31.288Z,490
2017-08-01T12:43:31.329Z,475
2017-08-01T12:44:31.250Z,460
2017-08-01T12:45:30.998Z,445
2017-08-01T12:46:31.254Z,405
2017-08-01T12:47:31.202Z,340
2017-08-01T12:48:31.189Z,290
2017-08-01T12:49:31.227Z,265
2017-08-01T12:50:31.212Z,245
2017-08-01T12:51:30.851Z,230
2017-08-01T12:52:31.134Z,225
2017-08-01T12:53:30.842Z,200
2017-08-01T12:54:31.091Z,190
2017-08-01T12:55:30.788Z,180
2017-08-01T12:56:30.771Z,170
2017-08-01T12:57:30.749Z,165
2017-08-01T12:58:31.041Z,165
2017-08-01T12:59:31.023Z,155
2017-08-01T13:00:31.008Z,150
2017-08-01T13:01:31.001Z,140
2017-08-01T13:02:30.973Z,140
2017-08-01T13:03:30.957Z,140
2017-08-01T13:04:30.953Z,140
2017-08-01T13:05:30.926Z,155
2017-08-01T13:06:30.618Z,170
2017-08-01T13:07:30.892Z,185
2017-08-01T13:08:30.942Z,190
2017-08-01T13:09:30.857Z,195
2017-08-01T13:10:30.195Z,205
2017-08-01T13:11:30.849Z,215
2017-08-01T13:12:30.805Z,225
2017-08-01T13:13:30.796Z,235
2017-08-01T13:14:30.785Z,250
2017-08-01T13:15:30.815Z,255
2017-08-01T13:16:30.447Z,250
2017-08-01T13:17:30.733Z,245
2017-08-01T13:18:30.725Z,235
2017-08-01T13:19:30.402Z,225
2017-08-01T13:20:30.692Z,220
2017-08-01T13:21:30.678Z,210
2017-08-01T13:22:30.398Z,210
2017-08-01T13:23:30.626Z,225
2017-08-01T13:24:30.608Z,240
2017-08-01T13:25:30.607Z,245
2017-08-01T13:26:30.282Z,250
2017-08-01T13:27:30.567Z,250
2017-08-01T13:28:30.298Z,245
2017-08-01T13:29:30.581Z,235
2017-08-01T13:30:30.615Z,235
2017-08-01T13:31:30.260Z,235
2017-08-01T13:32:30.500Z,235
2017-08-01T13:33:30.472Z,250
2017-08-01T13:34:30.508Z,260
2017-08-01T13:35:30.433Z,270
2017-08-01T13:36:30.523Z,270
2017-08-01T13:37:30.404Z,265
2017-08-01T13:38:30.393Z,235
2017-08-01T13:39:30.372Z,205
2017-08-01T13:40:30.405Z,195
2017-08-01T13:41:30.032Z,185
2017-08-01T13:42:30.314Z,155
2017-08-01T13:43:30.297Z,135
2017-08-01T13:44:30.012Z,120
2017-08-01T13:45:30.269Z,115
2017-08-01T13:46:30.274Z,120
2017-08-01T13:47:30.245Z,135
2017-08-01T13:48:30.267Z,150
2017-08-01T13:49:30.212Z,160
2017-08-01T13:50:29.896Z,195
2017-08-01T13:51:29.882Z,250
2017-08-01T13:52:30.220Z,310
2017-08-01T13:53:29.825Z,360
2017-08-01T13:54:29.862Z,390
2017-08-01T13:55:30.093Z,445
2017-08-01T13:56:29.786Z,480
2017-08-01T13:57:30.070Z,520
2017-08-01T13:58:29.758Z,560
2017-08-01T13:59:30.036Z,595
2017-08-01T14:00:30.073Z,590
2017-08-01T14:01:30.002Z,575
2017-08-01T14:02:30.045Z,565